createdAt,value
2024-03-10T00:00:16.549Z,2.12
2024-03-10T00:05:40.524Z,2.77
2024-03-10T00:11:07.661Z,2.14
2024-03-10T00:16:30.664Z,2.41
2024-03-10T00:21:55.329Z,2.11
2024-03-10T00:27:19.623Z,2.22
2024-03-10T00:32:43.049Z,1.73
2024-03-10T00:38:06.505Z,2.02
2024-03-10T00:43:31.055Z,2.38
2024-03-10T00:48:56.359Z,1.46
2024-03-10T00:54:19.513Z,1.87
2024-03-10T00:59:44.325Z,1.78
2024-03-10T01:05:08.451Z,1.47
2024-03-10T01:10:32.818Z,2.08
2024-03-10T01:15:57.334Z,2.06
2024-03-10T01:21:22.308Z,1.80
2024-03-10T01:26:45.513Z,1.08
2024-03-10T01:32:10.237Z,1.12
2024-03-10T01:37:33.306Z,1.19
2024-03-10T01:42:56.719Z,0.76
2024-03-10T01:48:21.654Z,1.01
2024-03-10T01:53:44.723Z,1.58
2024-03-10T01:59:10.410Z,2.11
2024-03-10T02:04:38.275Z,0.59
2024-03-10T02:10:02.346Z,0.51
2024-03-10T02:15:25.714Z,0.60
2024-03-10T02:20:50.071Z,0.72
2024-03-10T02:26:16.715Z,0.34
2024-03-10T02:31:57.388Z,0.31
2024-03-10T02:37:38.266Z,0.81
2024-03-10T02:43:20.384Z,0.63
2024-03-10T02:48:46.212Z,0.74
2024-03-10T02:54:09.337Z,0.90
2024-03-10T02:59:33.660Z,0.42
2024-03-10T03:04:59.686Z,0.99
2024-03-10T03:10:23.285Z,1.54
2024-03-10T03:15:47.682Z,0.79
2024-03-10T03:21:13.365Z,0.65
2024-03-10T03:26:37.757Z,0.17
2024-03-10T03:32:02.547Z,0.09
2024-03-10T03:37:25.457Z,0.13
2024-03-10T03:42:48.500Z,0.72
2024-03-10T03:48:13.249Z,0.68
2024-03-10T03:53:37.099Z,0.13
2024-03-10T03:59:01.605Z,0.01
2024-03-10T04:04:27.200Z,0.68
2024-03-10T04:09:50.226Z,1.33
2024-03-10T04:15:14.203Z,-0.09
2024-03-10T04:20:43.002Z,-0.12
2024-03-10T04:26:10.577Z,0.52
2024-03-10T04:31:33.967Z,-0.06
2024-03-10T04:36:58.519Z,0.01
2024-03-10T04:42:21.679Z,-0.16
2024-03-10T04:47:45.022Z,0.44
2024-03-10T04:53:12.696Z,0.63
2024-03-10T04:58:36.086Z,0.71
2024-03-10T05:04:02.115Z,0.16
2024-03-10T05:09:26.581Z,-0.67
2024-03-10T05:14:50.775Z,-0.34
2024-03-10T05:20:18.729Z,0.11
2024-03-10T05:25:43.358Z,0.57
2024-03-10T05:31:06.590Z,0.82
2024-03-10T05:36:29.895Z,0.43
2024-03-10T05:41:55.451Z,0.57
2024-03-10T05:47:19.241Z,0.54
2024-03-10T05:52:43.522Z,0.66
2024-03-10T05:58:13.694Z,0.30
2024-03-10T06:03:36.966Z,1.23
2024-03-10T06:09:01.204Z,1.81
2024-03-10T06:14:31.336Z,2.06
2024-03-10T06:20:13.865Z,2.13
2024-03-10T06:25:36.917Z,2.36
2024-03-10T06:31:03.456Z,2.68
2024-03-10T06:36:28.513Z,2.78
2024-03-10T06:41:52.095Z,3.02
2024-03-10T06:47:16.726Z,2.98
2024-03-10T06:52:46.581Z,3.09
2024-03-10T06:58:09.970Z,3.54
2024-03-10T07:03:37.314Z,3.61
2024-03-10T07:09:00.689Z,3.84
2024-03-10T07:14:23.860Z,4.12
2024-03-10T07:19:48.658Z,4.42
2024-03-10T07:25:15.897Z,4.20
2024-03-10T07:30:39.076Z,4.42
2024-03-10T07:36:03.567Z,4.61
2024-03-10T07:41:27.295Z,4.74
2024-03-10T07:46:50.387Z,5.12
2024-03-10T07:52:15.570Z,5.22
2024-03-10T07:57:40.876Z,5.32
2024-03-10T08:03:04.356Z,5.56
2024-03-10T08:08:29.279Z,5.88
2024-03-10T08:13:52.702Z,5.89
2024-03-10T08:19:18.230Z,6.19
2024-03-10T08:24:42.796Z,6.48
2024-03-10T08:30:10.323Z,6.71
2024-03-10T08:35:33.940Z,6.88
2024-03-10T08:41:00.080Z,7.50
2024-03-10T08:46:24.400Z,7.80
2024-03-10T08:51:47.948Z,7.53
2024-03-10T08:57:13.895Z,6.85
2024-03-10T09:02:43.270Z,6.69
2024-03-10T09:08:12.932Z,6.54
2024-03-10T09:13:39.257Z,7.03
2024-03-10T09:19:02.531Z,7.33
2024-03-10T09:24:25.721Z,7.25
2024-03-10T09:29:58.205Z,7.29
2024-03-10T09:35:25.940Z,7.56
2024-03-10T09:40:50.189Z,7.56
2024-03-10T09:46:15.205Z,8.07
2024-03-10T09:51:39.796Z,7.96
2024-03-10T09:57:07.197Z,8.35
2024-03-10T10:02:36.290Z,8.35
2024-03-10T10:07:59.765Z,8.84
2024-03-10T10:13:23.944Z,9.13
2024-03-10T10:18:54.616Z,9.05
2024-03-10T10:24:22.992Z,9.22
2024-03-10T10:29:50.539Z,9.53
2024-03-10T10:35:17.444Z,9.60
2024-03-10T10:40:41.283Z,9.49
2024-03-10T10:46:05.500Z,9.68
2024-03-10T10:51:30.295Z,9.53
2024-03-10T10:56:55.669Z,10.13
2024-03-10T11:02:21.045Z,10.43
2024-03-10T11:07:46.941Z,10.41
2024-03-10T11:13:12.015Z,11.23
2024-03-10T11:18:37.054Z,11.37
2024-03-10T11:24:02.160Z,10.81
2024-03-10T11:29:28.204Z,10.90
2024-03-10T11:34:52.518Z,13.67
2024-03-10T11:40:17.726Z,14.08
2024-03-10T11:45:41.764Z,14.48
2024-03-10T11:51:06.346Z,12.07
2024-03-10T11:56:33.452Z,13.52
2024-03-10T12:01:58.489Z,15.66
2024-03-10T12:07:26.718Z,16.96
2024-03-10T12:12:53.347Z,19.03
2024-03-10T12:18:18.237Z,18.45
2024-03-10T12:23:43.313Z,18.47
2024-03-10T12:29:10.014Z,17.48
2024-03-10T12:34:33.211Z,15.56
2024-03-10T12:39:57.360Z,15.42
2024-03-10T12:45:24.284Z,16.97
2024-03-10T12:50:50.398Z,15.47
2024-03-10T12:56:14.625Z,15.44
2024-03-10T13:01:39.207Z,15.96
2024-03-10T13:07:02.216Z,14.98
2024-03-10T13:12:25.408Z,14.85
2024-03-10T13:17:50.207Z,15.37
2024-03-10T13:23:14.508Z,15.14
2024-03-10T13:28:37.628Z,15.88
2024-03-10T13:34:02.749Z,15.19
2024-03-10T13:39:28.973Z,13.81
2024-03-10T13:44:53.849Z,13.63
2024-03-10T13:50:20.833Z,13.19
2024-03-10T13:55:45.378Z,13.07
2024-03-10T14:01:08.576Z,13.05
2024-03-10T14:06:33.456Z,13.40
2024-03-10T14:11:57.461Z,13.13
2024-03-10T14:17:20.645Z,12.93
2024-03-10T14:22:46.865Z,13.17
2024-03-10T14:28:09.930Z,13.07
2024-03-10T14:33:34.426Z,12.81
2024-03-10T14:38:58.876Z,12.56
2024-03-10T14:44:22.720Z,12.41
2024-03-10T14:49:48.587Z,12.26
2024-03-10T14:55:16.355Z,12.34
2024-03-10T15:00:42.062Z,12.38
2024-03-10T15:06:06.852Z,12.98
2024-03-10T15:11:32.170Z,12.64
2024-03-10T15:16:55.670Z,12.16
2024-03-10T15:22:19.235Z,11.86
2024-03-10T15:27:43.597Z,12.23
2024-03-10T15:33:06.812Z,12.09
2024-03-10T15:38:30.205Z,12.18
2024-03-10T15:43:55.899Z,12.13
2024-03-10T15:49:19.039Z,11.75
2024-03-10T15:54:42.251Z,11.65
2024-03-10T16:00:08.434Z,11.46
2024-03-10T16:05:38.816Z,11.38
2024-03-10T16:11:02.070Z,11.43
2024-03-10T16:16:26.625Z,11.58
2024-03-10T16:21:52.653Z,11.43
2024-03-10T16:27:16.944Z,11.27
2024-03-10T16:32:41.629Z,11.30
2024-03-10T16:38:07.665Z,11.30
2024-03-10T16:43:30.700Z,11.07
2024-03-10T16:48:55.290Z,11.27
2024-03-10T16:54:18.160Z,11.03
2024-03-10T16:59:42.411Z,11.22
2024-03-10T17:05:07.233Z,10.96
2024-03-10T17:10:31.028Z,10.76
2024-03-10T17:15:54.269Z,10.89
2024-03-10T17:21:18.846Z,10.84
2024-03-10T17:26:43.147Z,10.70
2024-03-10T17:32:07.418Z,11.11
2024-03-10T17:37:32.142Z,11.11
2024-03-10T17:42:56.439Z,11.22
2024-03-10T17:48:20.060Z,10.56
2024-03-10T17:53:46.253Z,10.41
2024-03-10T17:59:09.295Z,10.10
2024-03-10T18:04:35.122Z,10.58
2024-03-10T18:10:00.325Z,10.50
2024-03-10T18:15:25.765Z,10.04
2024-03-10T18:20:50.124Z,10.15
2024-03-10T18:26:14.920Z,10.83
2024-03-10T18:31:38.693Z,10.27
2024-03-10T18:37:01.872Z,9.83
2024-03-10T18:42:26.249Z,9.52
2024-03-10T18:47:49.400Z,10.24
2024-03-10T18:53:12.434Z,10.02
2024-03-10T18:58:36.762Z,9.93
2024-03-10T19:04:00.885Z,9.89
2024-03-10T19:09:24.320Z,10.00
2024-03-10T19:14:48.704Z,9.80
2024-03-10T19:20:22.406Z,9.09
2024-03-10T19:25:48.948Z,9.18
2024-03-10T19:31:13.280Z,9.24
2024-03-10T19:36:41.333Z,9.78
2024-03-10T19:42:04.485Z,9.77
2024-03-10T19:47:28.843Z,8.96
2024-03-10T19:52:54.215Z,9.13
2024-03-10T19:58:17.652Z,8.99
2024-03-10T20:03:41.949Z,9.17
2024-03-10T20:09:06.701Z,8.94
2024-03-10T20:14:30.335Z,9.02
2024-03-10T20:19:55.428Z,9.42
2024-03-10T20:25:19.662Z,9.71
2024-03-10T20:30:42.662Z,9.40
2024-03-10T20:36:09.762Z,9.67
2024-03-10T20:41:32.703Z,9.72
2024-03-10T20:46:55.672Z,9.68
2024-03-10T20:52:20.485Z,9.56
2024-03-10T20:57:45.871Z,9.49
2024-03-10T21:03:08.781Z,9.25
2024-03-10T21:08:33.877Z,9.19
2024-03-10T21:13:56.845Z,9.02
2024-03-10T21:19:20.106Z,9.00
2024-03-10T21:24:44.378Z,8.81
2024-03-10T21:30:08.755Z,8.58
2024-03-10T21:35:31.843Z,8.24
2024-03-10T21:40:59.076Z,8.01
2024-03-10T21:46:22.614Z,7.63
2024-03-10T21:51:46.737Z,8.11
2024-03-10T21:57:11.011Z,7.97
2024-03-10T22:02:34.567Z,6.74
2024-03-10T22:07:57.846Z,5.72
2024-03-10T22:13:22.242Z,6.46
2024-03-10T22:18:45.785Z,6.17
2024-03-10T22:24:09.586Z,5.83
2024-03-10T22:29:33.846Z,5.30
2024-03-10T22:34:56.844Z,5.49
2024-03-10T22:40:21.463Z,5.00
2024-03-10T22:45:45.965Z,5.07
2024-03-10T22:51:09.078Z,5.28
2024-03-10T22:56:32.299Z,5.25
2024-03-10T23:01:56.688Z,4.87
2024-03-10T23:07:19.772Z,4.47
2024-03-10T23:12:43.357Z,5.52
2024-03-10T23:18:08.585Z,5.26
2024-03-10T23:23:34.558Z,5.47
2024-03-10T23:28:59.072Z,5.51
2024-03-10T23:34:23.306Z,6.35
2024-03-10T23:39:48.030Z,6.24
2024-03-10T23:45:13.688Z,6.52
2024-03-10T23:50:38.119Z,5.54
2024-03-10T23:56:04.259Z,5.39
